Petalidi — 9HA4425 — position and weather

sailwx.info

Track history (hours):
 
Tides and Currents Weather Stations Pressure Air Temp Water Temp Dewpoint Dewpoint Depression Visibility Wind Speed Wind Dir Waves Ship Positions

Petalidi

Last reported at 2017-Dec-11 12:58 UTC. Time now 2017-Dec-18 12:47 UTC.
Position N 35°46' E 014°01'.

; draft 7.9 m.

Type: Cargo ship. MMSI: 249902000.

Date/timePositionNaut miles runAvg speedWind from/ knotsBaromVisibWave heightAir tempDewpointWater temp
2017-Dec-11 12:58N 35°46' E 014°01'511.1
2017-Dec-11 12:30N 35°46' E 014°07'611.1
2017-Dec-11 12:00N 35°45' E 014°14'611.3
2017-Dec-11 11:31N 35°45' E 014°21'711.1
2017-Dec-11 10:55N 35°46' E 014°29'5 9.4
2017-Dec-11 10:26N 35°48' E 014°34'2 0.2
2017-Dec-10 21:00N 35°49' E 014°32'0 0.0
2017-Dec-10 16:30N 35°49' E 014°32'0 0.0
2017-Dec-10 13:06N 35°49' E 014°32'0 0.0
2017-Dec-10 12:57N 35°49' E 014°32'0 0.8
2017-Dec-10 12:24N 35°49' E 014°33'3 6.3
2017-Dec-10 11:58N 35°48' E 014°35'1 1.3
2017-Dec-10 11:30N 35°47' E 014°36'1 2.7
2017-Dec-10 11:00N 35°46' E 014°36'2 4.5
2017-Dec-10 10:30N 35°45' E 014°34'2 4.1
2017-Dec-10 10:00N 35°46' E 014°31'1 1.1
2017-Dec-10 09:29N 35°45' E 014°31'1 0.5
2017-Dec-10 08:19N 35°45' E 014°30'0 0.3
2017-Dec-10 08:00N 35°45' E 014°30'0 0.4
2017-Dec-10 07:30N 35°45' E 014°30'0 0.4
2017-Dec-10 07:00N 35°45' E 014°29'1 0.7
2017-Dec-10 06:19N 35°45' E 014°29'0 1.2
2017-Dec-10 05:58N 35°45' E 014°28'1 2.8
2017-Dec-10 05:28N 35°45' E 014°27'3 5.5
2017-Dec-10 05:00N 35°46' E 014°24'5 9.5
2017-Dec-10 04:29N 35°48' E 014°19'5 9.8
2017-Dec-10 04:00N 35°51' E 014°14'5 9.7
2017-Dec-10 03:30N 35°54' E 014°09'5 9.7
2017-Dec-10 03:00N 35°57' E 014°04'5 9.7
2017-Dec-10 02:30N 35°60' E 013°59'5 9.6
2017-Dec-10 02:00N 36°02' E 013°54'5 9.4
2017-Dec-10 01:29N 36°05' E 013°49'5 9.5
2017-Dec-10 01:00N 36°08' E 013°45'5 9.6
2017-Dec-10 00:30N 36°10' E 013°40'5 9.8
2017-Dec-10 00:00N 36°13' E 013°35'  
2017-Dec-03 05:37N 43°09' E 005°09'111.6
2017-Dec-03 05:30N 43°10' E 005°09'611.8
2017-Dec-03 05:00N 43°16' E 005°09'611.1
2017-Dec-03 04:30N 43°19' E 005°15'4 7.6
2017-Dec-03 04:00N 43°21' E 005°20'  
Track history (hours):
 
Tides and Currents Weather Stations Pressure Air Temp Water Temp Dewpoint Dewpoint Depression Visibility Wind Speed Wind Dir Waves Ship Positions

Petalidi

Last reported at 2017-Dec-11 12:58 UTC. Time now 2017-Dec-18 12:47 UTC.
Position N 35°46' E 014°01'.

; draft 7.9 m.

Type: Cargo ship. MMSI: 249902000.

Date/timePositionNaut miles runAvg speedWind from/ knotsBaromVisibWave heightAir tempDewpointWater temp
2017-Dec-11 12:58N 35°46' E 014°01'511.1
2017-Dec-11 12:30N 35°46' E 014°07'611.1
2017-Dec-11 12:00N 35°45' E 014°14'611.3
2017-Dec-11 11:31N 35°45' E 014°21'711.1
2017-Dec-11 10:55N 35°46' E 014°29'5 9.4
2017-Dec-11 10:26N 35°48' E 014°34'2 0.2
2017-Dec-10 21:00N 35°49' E 014°32'0 0.0
2017-Dec-10 16:30N 35°49' E 014°32'0 0.0
2017-Dec-10 13:06N 35°49' E 014°32'0 0.0
2017-Dec-10 12:57N 35°49' E 014°32'0 0.8
2017-Dec-10 12:24N 35°49' E 014°33'3 6.3
2017-Dec-10 11:58N 35°48' E 014°35'1 1.3
2017-Dec-10 11:30N 35°47' E 014°36'1 2.7
2017-Dec-10 11:00N 35°46' E 014°36'2 4.5
2017-Dec-10 10:30N 35°45' E 014°34'2 4.1
2017-Dec-10 10:00N 35°46' E 014°31'1 1.1
2017-Dec-10 09:29N 35°45' E 014°31'1 0.5
2017-Dec-10 08:19N 35°45' E 014°30'0 0.3
2017-Dec-10 08:00N 35°45' E 014°30'0 0.4
2017-Dec-10 07:30N 35°45' E 014°30'0 0.4
2017-Dec-10 07:00N 35°45' E 014°29'1 0.7
2017-Dec-10 06:19N 35°45' E 014°29'0 1.2
2017-Dec-10 05:58N 35°45' E 014°28'1 2.8
2017-Dec-10 05:28N 35°45' E 014°27'3 5.5
2017-Dec-10 05:00N 35°46' E 014°24'5 9.5
2017-Dec-10 04:29N 35°48' E 014°19'5 9.8
2017-Dec-10 04:00N 35°51' E 014°14'5 9.7
2017-Dec-10 03:30N 35°54' E 014°09'5 9.7
2017-Dec-10 03:00N 35°57' E 014°04'5 9.7
2017-Dec-10 02:30N 35°60' E 013°59'5 9.6
2017-Dec-10 02:00N 36°02' E 013°54'5 9.4
2017-Dec-10 01:29N 36°05' E 013°49'5 9.5
2017-Dec-10 01:00N 36°08' E 013°45'5 9.6
2017-Dec-10 00:30N 36°10' E 013°40'5 9.8
2017-Dec-10 00:00N 36°13' E 013°35'  
2017-Dec-03 05:37N 43°09' E 005°09'111.6
2017-Dec-03 05:30N 43°10' E 005°09'611.8
2017-Dec-03 05:00N 43°16' E 005°09'611.1
2017-Dec-03 04:30N 43°19' E 005°15'4 7.6
2017-Dec-03 04:00N 43°21' E 005°20'  

Dump ship's entire track history